Terminal Aerodrome Forecast
Issued by NWS Jackson, KY

Home | Current Version | Previous Version | Text Only | Print | Product List | Glossary On
Versions: 1 2 3 4 5 6 7 8 9 10 11 12
126
FTUS43 KJKL 270523
TAFJKL
TAF
KJKL 270523Z 2706/2806 00000KT P6SM BKN070
     FM270800 VRB03KT P6SM BKN060 BKN090
     FM271100 VRB03KT P6SM VCSH BKN060 BKN080
     FM271400 VRB03KT P6SM BKN060 BKN090
     FM271900 30004KT P6SM SCT060
     FM280000 VRB02KT P6SM SKC=

USA.gov is the U.S. government's official web portal to all federal, state and local government web resources and services.